Terminal Aerodrome Forecast
Issued by NWS Sioux Falls, SD

Home | Current Version | Previous Version | Text Only | Print | Product List | Glossary On
Versions: 1 2 3 4 5 6 7 8 9 10 11 12 13 14 15
000
FTUS43 KFSD 181404 AAA
TAFHON
TAF AMD
KHON 181404Z 1814/1912 32013KT P6SM BKN020
     FM181600 33019G28KT P6SM SCT150
     FM190000 32008KT P6SM FEW200
     FM190800 22004KT P6SM FEW250=

USA.gov is the U.S. government's official web portal to all federal, state and local government web resources and services.